Time;durP1;ratioP1;P1;durP2;ratioP2;P2;SDS_P1;SDS_P2;PMS_P1;PMS_P2;Temp;Humidity;BMP_temperature;BMP_pressure;BME280_temperature;BME280_humidity;BME280_pressure;Samples;Min_cycle;Max_cycle;Signal;HPM_P1;HPM_P2
2023/09/23 00:01:37;;;;;;;4.75;1.02;;;17.70;60.80;;;;;;5076337;28;20039;-81
2023/09/23 00:04:05;;;;;;;4.05;1.10;;;17.70;62.00;;;;;;5084065;28;20029;-80
2023/09/23 00:06:32;;;;;;;2.13;1.00;;;17.60;61.90;;;;;;5062068;28;20033;-81
2023/09/23 00:09:03;;;;;;;4.28;0.90;;;17.60;61.70;;;;;;5075661;28;20032;-80
2023/09/23 00:11:31;;;;;;;3.17;1.08;;;17.60;61.20;;;;;;5078780;28;20051;-80
2023/09/23 00:13:59;;;;;;;3.50;1.00;;;17.70;61.40;;;;;;5075041;28;20021;-81
2023/09/23 00:16:26;;;;;;;3.33;0.70;;;17.70;61.00;;;;;;5057558;28;20451;-81
2023/09/23 00:18:54;;;;;;;2.08;0.80;;;17.70;61.00;;;;;;5065640;28;20502;-79
2023/09/23 00:21:22;;;;;;;2.78;0.60;;;17.70;61.50;;;;;;5076040;28;20032;-81
2023/09/23 00:23:50;;;;;;;2.72;0.82;;;17.80;61.30;;;;;;5075918;28;20029;-80
2023/09/23 00:26:20;;;;;;;3.42;0.70;;;17.70;60.10;;;;;;5074263;28;20033;-81
2023/09/23 00:28:47;;;;;;;2.53;0.88;;;17.70;59.30;;;;;;5071918;28;20035;-79
2023/09/23 00:31:15;;;;;;;3.78;0.90;;;17.80;60.00;;;;;;5071084;28;20016;-80
2023/09/23 00:33:43;;;;;;;4.07;0.85;;;17.70;59.80;;;;;;5067920;28;20028;-79
2023/09/23 00:36:10;;;;;;;2.35;0.77;;;17.70;59.30;;;;;;5076949;28;20048;-79
2023/09/23 00:38:39;;;;;;;2.40;0.90;;;17.80;59.10;;;;;;5095904;28;20017;-81
2023/09/23 00:41:06;;;;;;;4.97;0.90;;;17.70;59.10;;;;;;5095090;28;20039;-80
2023/09/23 00:43:34;;;;;;;5.85;2.55;;;17.70;59.30;;;;;;5073853;28;20475;-79
2023/09/23 00:46:04;;;;;;;3.28;1.05;;;17.80;59.50;;;;;;5074652;28;20101;-81
2023/09/23 00:48:38;;;;;;;3.25;0.77;;;17.80;59.20;;;;;;5069296;28;20025;-80
2023/09/23 00:51:09;;;;;;;1.20;0.50;;;17.90;58.80;;;;;;5068009;28;20024;-81
2023/09/23 00:53:40;;;;;;;1.33;0.52;;;17.90;57.80;;;;;;5083305;28;20016;-80
2023/09/23 00:56:12;;;;;;;2.78;0.60;;;17.90;57.90;;;;;;5061150;28;20021;-80
2023/09/23 00:58:42;;;;;;;1.08;0.40;;;17.90;57.20;;;;;;5058128;28;20025;-78
2023/09/23 01:01:10;;;;;;;2.25;0.65;;;17.90;56.70;;;;;;5055281;28;20074;-78
2023/09/23 01:03:38;;;;;;;4.43;0.60;;;17.90;56.90;;;;;;5054710;28;20029;-78
2023/09/23 01:06:28;;;;;;;1.63;0.65;;;17.90;56.70;;;;;;5053584;28;20040;-80
2023/09/23 01:08:57;;;;;;;1.05;0.50;;;17.90;56.80;;;;;;5056725;28;20412;-78
2023/09/23 01:11:27;;;;;;;2.17;0.50;;;17.90;56.70;;;;;;5075578;28;20031;-78
2023/09/23 01:13:54;;;;;;;3.08;0.50;;;17.90;56.60;;;;;;5073561;28;20020;-79
2023/09/23 01:16:22;;;;;;;2.55;0.60;;;17.90;56.30;;;;;;5073726;28;20372;-79
2023/09/23 01:18:49;;;;;;;2.30;0.65;;;18.00;56.80;;;;;;5072428;28;20020;-79
2023/09/23 01:21:18;;;;;;;2.45;0.70;;;18.10;56.50;;;;;;5065133;28;20104;-77
2023/09/23 01:23:46;;;;;;;5.25;0.80;;;18.00;55.80;;;;;;5063909;28;20027;-81
2023/09/23 01:26:13;;;;;;;3.05;0.60;;;18.10;56.00;;;;;;5069569;28;20051;-77
2023/09/23 01:28:41;;;;;;;1.15;0.57;;;18.00;54.60;;;;;;5068689;28;20040;-78
2023/09/23 01:31:09;;;;;;;2.75;0.60;;;18.00;55.10;;;;;;5066119;28;20556;-81
2023/09/23 01:33:38;;;;;;;1.88;0.65;;;18.00;54.90;;;;;;5064760;28;20032;-79
2023/09/23 01:36:06;;;;;;;1.40;0.60;;;18.00;55.30;;;;;;5057828;28;20090;-77
2023/09/23 01:38:34;;;;;;;1.63;0.40;;;18.00;54.50;;;;;;5056825;28;20051;-81
2023/09/23 01:41:03;;;;;;;1.77;0.70;;;17.90;54.30;;;;;;5062891;28;20029;-79
2023/09/23 01:43:31;;;;;;;2.95;0.57;;;18.00;54.80;;;;;;5063290;28;20021;-79
2023/09/23 01:46:03;;;;;;;1.65;0.50;;;18.10;54.80;;;;;;5065273;28;20049;-81
2023/09/23 01:48:31;;;;;;;1.13;0.50;;;18.10;54.00;;;;;;5066970;28;20470;-79
2023/09/23 01:50:59;;;;;;;0.80;0.40;;;18.20;54.70;;;;;;5063824;28;20036;-79
2023/09/23 01:53:28;;;;;;;2.85;0.60;;;18.20;54.80;;;;;;5054080;28;20070;-79
2023/09/23 01:55:55;;;;;;;1.77;0.40;;;18.20;53.90;;;;;;5055185;28;20032;-78
2023/09/23 01:58:23;;;;;;;2.03;0.80;;;18.20;53.90;;;;;;5067627;28;20091;-79
2023/09/23 02:00:55;;;;;;;3.65;0.85;;;18.20;53.50;;;;;;5059756;28;20028;-81
2023/09/23 02:03:23;;;;;;;1.77;0.40;;;18.20;53.90;;;;;;5066693;28;20521;-78
2023/09/23 02:05:51;;;;;;;1.08;0.55;;;18.20;52.70;;;;;;5062920;28;20119;-78
2023/09/23 02:08:18;;;;;;;3.28;0.70;;;18.20;52.40;;;;;;5056080;28;20033;-79
2023/09/23 02:10:47;;;;;;;3.00;0.70;;;18.20;52.70;;;;;;5059233;28;20467;-79
2023/09/23 02:13:15;;;;;;;4.53;0.70;;;18.20;53.30;;;;;;5062531;28;20072;-78
2023/09/23 02:15:45;;;;;;;2.65;0.50;;;18.20;53.40;;;;;;5052955;28;20498;-78
2023/09/23 02:18:14;;;;;;;1.70;0.50;;;18.30;53.40;;;;;;5053909;28;20029;-79
2023/09/23 02:20:42;;;;;;;1.38;0.45;;;18.30;52.80;;;;;;5063943;28;20060;-79
2023/09/23 02:23:11;;;;;;;3.30;0.80;;;18.30;52.00;;;;;;5063603;28;20099;-77
2023/09/23 02:25:38;;;;;;;0.77;0.50;;;18.30;52.00;;;;;;5051268;28;20048;-79
2023/09/23 02:28:06;;;;;;;1.40;0.60;;;18.30;52.70;;;;;;5064939;28;20017;-78
2023/09/23 02:30:33;;;;;;;3.88;0.75;;;18.30;52.90;;;;;;5060133;28;20081;-78
2023/09/23 02:33:01;;;;;;;2.60;0.90;;;18.30;52.60;;;;;;5071416;28;20024;-78
2023/09/23 02:35:28;;;;;;;0.90;0.38;;;18.40;52.20;;;;;;5069077;28;20027;-78
2023/09/23 02:37:56;;;;;;;1.20;0.65;;;18.40;52.90;;;;;;5057986;28;20025;-78
2023/09/23 02:40:27;;;;;;;2.53;0.60;;;18.40;52.80;;;;;;5065290;28;20043;-78
2023/09/23 02:42:55;;;;;;;0.57;0.40;;;18.40;52.90;;;;;;5073062;28;20023;-78
2023/09/23 02:45:23;;;;;;;1.23;0.57;;;18.40;52.30;;;;;;5055227;28;20041;-77
2023/09/23 02:47:52;;;;;;;2.13;0.50;;;18.40;51.80;;;;;;5071444;28;20017;-79
2023/09/23 02:50:20;;;;;;;1.95;0.60;;;18.40;51.70;;;;;;5058430;28;20089;-79
2023/09/23 02:52:51;;;;;;;4.07;0.75;;;18.40;51.70;;;;;;5061113;28;20028;-79
2023/09/23 02:55:22;;;;;;;3.13;0.70;;;18.40;51.70;;;;;;5064061;28;20025;-79
2023/09/23 02:57:52;;;;;;;1.70;0.50;;;18.40;51.20;;;;;;5062607;28;20021;-79
2023/09/23 03:00:24;;;;;;;2.05;0.63;;;18.30;51.20;;;;;;5062967;28;20025;-79
2023/09/23 03:02:59;;;;;;;1.15;0.50;;;18.30;51.30;;;;;;5061046;28;20357;-77
2023/09/23 03:05:31;;;;;;;1.65;0.60;;;18.40;51.10;;;;;;5060496;28;20029;-78
2023/09/23 03:08:00;;;;;;;0.98;0.50;;;18.40;51.40;;;;;;5062379;28;20033;-78
2023/09/23 03:10:32;;;;;;;1.58;0.45;;;18.40;51.80;;;;;;5067362;28;20056;-79
2023/09/23 03:13:05;;;;;;;3.05;0.80;;;18.50;52.10;;;;;;5070588;28;20025;-79
2023/09/23 03:16:06;;;;;;;0.70;0.50;;;18.50;51.90;;;;;;5063132;28;20607;-79
2023/09/23 03:18:42;;;;;;;1.20;0.60;;;18.60;52.20;;;;;;5062105;28;20036;-78
2023/09/23 03:21:09;;;;;;;1.05;0.40;;;18.70;52.00;;;;;;5060869;28;20384;-80
2023/09/23 03:23:40;;;;;;;0.65;0.40;;;18.70;51.80;;;;;;5062728;28;20036;-78
2023/09/23 03:26:09;;;;;;;1.20;0.43;;;18.70;51.90;;;;;;5071454;28;20533;-79
2023/09/23 03:28:40;;;;;;;1.50;0.60;;;18.90;52.00;;;;;;5055576;28;20166;-79
2023/09/23 03:31:08;;;;;;;1.70;0.80;;;19.20;51.70;;;;;;5069531;28;20024;-78
2023/09/23 03:33:37;;;;;;;0.32;0.30;;;19.50;51.00;;;;;;5059659;28;20116;-79
2023/09/23 03:36:05;;;;;;;2.47;0.80;;;19.70;50.20;;;;;;5055841;28;20064;-78
2023/09/23 03:38:33;;;;;;;0.80;0.50;;;19.90;49.70;;;;;;5052104;28;20077;-78
2023/09/23 03:41:02;;;;;;;5.45;1.10;;;20.20;49.40;;;;;;5055525;28;20506;-79
2023/09/23 03:43:29;;;;;;;1.25;0.60;;;20.40;48.10;;;;;;5057030;28;20029;-78
2023/09/23 03:45:56;;;;;;;4.13;0.60;;;20.60;47.70;;;;;;5057011;28;20068;-78
2023/09/23 03:48:25;;;;;;;3.53;0.75;;;20.70;47.70;;;;;;5069258;28;20107;-77
2023/09/23 03:50:53;;;;;;;2.45;0.55;;;20.80;47.80;;;;;;5055060;28;20044;-78
2023/09/23 03:53:22;;;;;;;0.98;0.60;;;20.90;48.00;;;;;;5068791;28;20362;-78
2023/09/23 03:55:53;;;;;;;1.60;0.60;;;21.20;46.60;;;;;;5072245;28;20032;-78
2023/09/23 03:58:20;;;;;;;0.95;0.43;;;21.20;46.60;;;;;;5066903;28;20021;-79
2023/09/23 04:00:49;;;;;;;3.17;0.50;;;21.30;45.60;;;;;;5060690;28;20031;-83
2023/09/23 04:03:18;;;;;;;1.20;0.50;;;21.30;45.50;;;;;;5071948;28;20491;-78
2023/09/23 04:05:53;;;;;;;1.85;0.60;;;21.30;45.60;;;;;;5072620;28;20032;-78
2023/09/23 04:08:20;;;;;;;1.38;0.65;;;21.50;45.20;;;;;;5069356;28;20051;-78
2023/09/23 04:10:48;;;;;;;0.85;0.57;;;21.60;44.70;;;;;;5050931;28;20427;-79
2023/09/23 04:13:15;;;;;;;1.33;0.70;;;21.60;44.40;;;;;;5052561;28;20021;-79
2023/09/23 04:15:44;;;;;;;2.75;0.50;;;21.60;44.60;;;;;;5052999;28;20017;-78
2023/09/23 04:18:12;;;;;;;1.92;0.40;;;21.60;44.50;;;;;;5063520;28;20421;-79
2023/09/23 04:20:43;;;;;;;1.58;0.60;;;21.60;44.40;;;;;;5072001;28;20506;-79
2023/09/23 04:23:10;;;;;;;1.52;0.60;;;21.50;44.50;;;;;;5071274;28;20059;-80
2023/09/23 04:25:38;;;;;;;1.48;0.60;;;21.30;44.90;;;;;;5066658;28;20116;-78
2023/09/23 04:28:06;;;;;;;2.75;0.60;;;21.30;44.80;;;;;;5063094;28;20115;-80
2023/09/23 04:30:34;;;;;;;2.88;0.63;;;21.20;45.20;;;;;;5060088;28;20123;-79
2023/09/23 04:33:02;;;;;;;1.42;0.45;;;21.20;44.50;;;;;;5070047;28;20025;-78
2023/09/23 04:35:30;;;;;;;4.10;0.60;;;21.20;44.90;;;;;;5055732;28;20475;-79
2023/09/23 04:37:58;;;;;;;1.33;0.70;;;21.20;44.60;;;;;;5061683;28;20058;-78
2023/09/23 04:40:25;;;;;;;4.88;0.70;;;21.20;45.10;;;;;;5071998;28;20025;-80
2023/09/23 04:42:54;;;;;;;2.33;0.68;;;21.00;44.70;;;;;;5075947;28;20475;-79
2023/09/23 04:45:24;;;;;;;1.55;0.50;;;20.90;45.00;;;;;;5072428;28;20028;-81
2023/09/23 04:47:51;;;;;;;1.05;0.50;;;20.80;45.00;;;;;;5075328;28;20035;-79
2023/09/23 04:50:19;;;;;;;1.92;0.70;;;20.80;45.40;;;;;;5075653;28;20052;-80
2023/09/23 04:52:46;;;;;;;1.38;0.57;;;20.70;45.50;;;;;;5092355;28;20031;-80
2023/09/23 04:55:14;;;;;;;1.10;0.60;;;20.70;45.30;;;;;;5067759;28;20082;-80
2023/09/23 04:57:42;;;;;;;2.40;0.70;;;20.60;45.40;;;;;;5075937;28;20027;-79
2023/09/23 05:00:10;;;;;;;1.27;0.50;;;20.50;45.20;;;;;;5075713;28;20617;-80
2023/09/23 05:02:40;;;;;;;1.20;0.65;;;20.50;46.00;;;;;;5073662;28;20031;-79
2023/09/23 05:05:09;;;;;;;3.00;0.82;;;20.60;46.40;;;;;;5065416;28;20136;-79
2023/09/23 05:07:37;;;;;;;1.65;0.50;;;20.60;45.50;;;;;;5068756;28;20024;-80
2023/09/23 05:10:06;;;;;;;2.70;0.70;;;20.70;45.80;;;;;;5074917;28;20035;-79
2023/09/23 05:12:35;;;;;;;1.05;0.57;;;20.70;45.10;;;;;;5064042;28;20467;-81
2023/09/23 05:15:03;;;;;;;1.85;0.75;;;20.70;45.70;;;;;;5068946;28;20601;-80
2023/09/23 05:17:31;;;;;;;1.50;0.63;;;20.80;45.40;;;;;;5068840;28;20032;-79
2023/09/23 05:19:58;;;;;;;3.72;0.70;;;20.90;45.20;;;;;;5074070;28;20031;-79
2023/09/23 05:22:26;;;;;;;2.05;0.63;;;21.00;44.90;;;;;;5074127;28;20032;-79
2023/09/23 05:24:57;;;;;;;1.10;0.50;;;21.10;45.20;;;;;;5058812;28;20387;-80
2023/09/23 05:27:25;;;;;;;2.22;0.52;;;21.20;45.40;;;;;;5071860;28;20037;-81
2023/09/23 05:29:54;;;;;;;0.95;0.50;;;21.20;44.20;;;;;;5071891;28;20036;-79
2023/09/23 05:32:21;;;;;;;1.08;0.60;;;21.00;44.00;;;;;;5073661;28;20132;-79
2023/09/23 05:34:52;;;;;;;4.15;0.73;;;20.80;44.50;;;;;;5061808;28;20075;-78
2023/09/23 05:37:20;;;;;;;1.77;0.63;;;20.70;44.60;;;;;;5064721;28;20040;-80
2023/09/23 05:39:47;;;;;;;1.10;0.43;;;20.80;45.10;;;;;;5073205;28;20440;-80
2023/09/23 05:42:17;;;;;;;1.70;0.70;;;20.80;44.70;;;;;;5073778;28;20063;-79
2023/09/23 05:44:46;;;;;;;2.92;0.73;;;20.70;44.30;;;;;;5059423;28;20047;-79
2023/09/23 05:47:14;;;;;;;0.95;0.60;;;20.60;44.80;;;;;;5083681;28;20440;-79
2023/09/23 05:49:42;;;;;;;1.55;0.60;;;20.60;45.10;;;;;;5073373;28;20059;-80
2023/09/23 05:52:11;;;;;;;2.25;0.93;;;20.50;45.10;;;;;;5072798;28;20379;-78
2023/09/23 05:54:39;;;;;;;2.05;0.68;;;20.50;45.60;;;;;;5054383;28;20017;-79
2023/09/23 05:57:07;;;;;;;0.77;0.50;;;20.50;45.80;;;;;;5058309;28;20487;-80
2023/09/23 05:59:35;;;;;;;0.95;0.50;;;20.60;45.90;;;;;;5071509;28;20025;-81
2023/09/23 06:02:06;;;;;;;1.92;0.50;;;20.60;46.40;;;;;;5072206;28;20090;-80
2023/09/23 06:04:35;;;;;;;0.75;0.50;;;20.60;46.00;;;;;;5065651;28;20048;-79
2023/09/23 06:07:04;;;;;;;3.30;0.73;;;20.50;46.10;;;;;;5056107;28;20116;-81
2023/09/23 06:09:32;;;;;;;1.20;0.50;;;20.40;45.60;;;;;;5072626;28;20108;-79
2023/09/23 06:11:59;;;;;;;3.60;0.80;;;20.40;46.00;;;;;;5064425;28;20029;-79
2023/09/23 06:14:27;;;;;;;0.73;0.55;;;20.30;46.00;;;;;;5056391;28;20502;-79
2023/09/23 06:16:54;;;;;;;1.17;0.50;;;20.30;46.20;;;;;;5069502;28;20442;-80
2023/09/23 06:19:21;;;;;;;0.88;0.50;;;20.30;46.70;;;;;;5060941;28;20021;-81
2023/09/23 06:21:51;;;;;;;2.33;0.50;;;20.20;47.40;;;;;;5066945;28;20556;-80
2023/09/23 06:24:18;;;;;;;2.88;0.70;;;20.20;47.40;;;;;;5059722;28;20024;-79
2023/09/23 06:26:46;;;;;;;1.77;0.70;;;20.20;47.70;;;;;;5068478;28;20386;-81
2023/09/23 06:29:16;;;;;;;2.45;0.95;;;20.10;48.10;;;;;;5064528;28;20028;-81
2023/09/23 06:31:43;;;;;;;1.83;0.90;;;20.00;48.00;;;;;;5071543;28;20029;-81
2023/09/23 06:34:11;;;;;;;1.15;0.70;;;19.90;48.30;;;;;;5067803;28;20553;-80
2023/09/23 06:36:38;;;;;;;2.20;0.80;;;19.80;48.40;;;;;;5067909;28;20551;-79
2023/09/23 06:39:05;;;;;;;1.88;0.60;;;19.80;48.70;;;;;;5061469;28;20025;-80
2023/09/23 06:41:33;;;;;;;1.88;0.90;;;19.70;49.10;;;;;;5070904;28;20036;-81
2023/09/23 06:44:00;;;;;;;1.90;1.00;;;19.70;49.40;;;;;;5069506;28;20025;-80
2023/09/23 06:46:27;;;;;;;1.95;0.80;;;19.70;49.50;;;;;;5064731;28;20132;-80
2023/09/23 06:48:55;;;;;;;2.40;0.80;;;19.60;49.60;;;;;;5070521;28;20367;-81
2023/09/23 06:51:22;;;;;;;1.88;0.80;;;19.60;49.90;;;;;;5069292;28;20082;-81
2023/09/23 06:53:49;;;;;;;2.38;0.73;;;19.50;50.20;;;;;;5068133;28;20027;-82
2023/09/23 06:56:17;;;;;;;3.45;0.55;;;19.40;50.60;;;;;;5072721;28;20467;-78
2023/09/23 06:58:44;;;;;;;1.52;0.63;;;19.40;50.70;;;;;;5071908;28;20056;-81
2023/09/23 07:01:12;;;;;;;1.42;0.50;;;19.30;50.60;;;;;;5068593;28;20318;-81
2023/09/23 07:03:39;;;;;;;2.78;0.80;;;19.20;50.70;;;;;;5070003;28;20017;-79
2023/09/23 07:06:06;;;;;;;1.00;0.50;;;19.20;51.10;;;;;;5072957;28;20039;-80
2023/09/23 07:08:36;;;;;;;2.20;1.10;;;19.00;50.90;;;;;;5073487;28;20036;-81
2023/09/23 07:11:03;;;;;;;3.13;1.00;;;19.00;51.20;;;;;;5064524;28;20081;-80
2023/09/23 07:13:31;;;;;;;3.47;0.98;;;18.90;51.30;;;;;;5051581;28;20021;-81
2023/09/23 07:15:58;;;;;;;2.20;0.70;;;18.80;51.70;;;;;;5061061;28;20040;-80
2023/09/23 07:18:27;;;;;;;0.90;0.52;;;18.80;51.80;;;;;;5069002;28;20378;-80
2023/09/23 07:20:57;;;;;;;1.52;0.60;;;18.80;52.00;;;;;;5061626;28;20036;-79
2023/09/23 07:23:26;;;;;;;1.70;0.70;;;18.70;52.00;;;;;;5069957;28;20106;-79
2023/09/23 07:25:53;;;;;;;1.85;0.65;;;18.70;52.20;;;;;;5069382;28;20052;-81
2023/09/23 07:28:21;;;;;;;0.93;0.40;;;18.70;52.30;;;;;;5061670;28;20029;-78
2023/09/23 07:30:48;;;;;;;1.15;0.50;;;18.60;52.70;;;;;;5068871;28;20536;-79
2023/09/23 07:33:15;;;;;;;2.97;0.68;;;18.60;52.90;;;;;;5072641;28;20074;-79
2023/09/23 07:35:43;;;;;;;2.20;0.60;;;18.50;52.90;;;;;;5071503;28;20060;-79
2023/09/23 07:38:10;;;;;;;1.08;0.43;;;18.50;53.10;;;;;;5071778;28;20032;-79
2023/09/23 07:40:40;;;;;;;2.45;0.60;;;18.40;53.40;;;;;;5070266;28;20051;-79
2023/09/23 07:43:07;;;;;;;2.05;0.60;;;18.40;53.60;;;;;;5072324;28;20112;-80
2023/09/23 07:45:35;;;;;;;2.60;0.80;;;18.40;53.70;;;;;;5072438;28;20035;-81
2023/09/23 07:48:03;;;;;;;2.05;0.68;;;18.30;54.10;;;;;;5068777;28;20095;-81
2023/09/23 07:50:30;;;;;;;2.55;0.80;;;18.30;54.20;;;;;;5072511;28;20025;-81
2023/09/23 07:52:58;;;;;;;4.55;1.00;;;18.20;54.50;;;;;;5070847;28;20420;-82
2023/09/23 07:55:25;;;;;;;1.55;0.73;;;18.20;54.40;;;;;;5070945;28;20379;-80
2023/09/23 07:57:53;;;;;;;1.35;0.60;;;18.10;54.60;;;;;;5065824;28;20091;-80
2023/09/23 08:00:21;;;;;;;1.83;0.70;;;18.10;54.50;;;;;;5051487;28;20021;-81
2023/09/23 08:02:48;;;;;;;2.65;0.70;;;18.00;54.60;;;;;;5066481;28;20013;-81
2023/09/23 08:05:16;;;;;;;2.53;0.77;;;18.00;54.90;;;;;;5069994;28;20531;-81
2023/09/23 08:07:43;;;;;;;3.60;0.70;;;17.90;55.00;;;;;;5072039;28;20029;-81
2023/09/23 08:10:11;;;;;;;0.70;0.52;;;17.90;55.60;;;;;;5069330;28;20048;-81
2023/09/23 08:12:38;;;;;;;1.02;0.60;;;17.80;55.40;;;;;;5059525;28;20033;-80
2023/09/23 08:15:07;;;;;;;1.88;0.75;;;17.80;55.30;;;;;;5057431;28;20104;-80
2023/09/23 08:17:35;;;;;;;2.97;1.00;;;17.80;55.30;;;;;;5065180;28;20044;-81
2023/09/23 08:20:02;;;;;;;1.75;0.82;;;17.80;55.50;;;;;;5057844;28;20555;-80
2023/09/23 08:22:30;;;;;;;0.80;0.60;;;17.70;55.90;;;;;;5069763;28;20074;-80
2023/09/23 08:24:59;;;;;;;2.78;0.95;;;17.70;55.70;;;;;;5074892;28;20032;-80
2023/09/23 08:27:27;;;;;;;2.85;0.75;;;17.70;56.00;;;;;;5067776;28;20123;-80
2023/09/23 08:29:54;;;;;;;1.30;0.63;;;17.70;56.30;;;;;;5060546;28;20059;-81
2023/09/23 08:32:21;;;;;;;3.55;0.90;;;17.60;56.90;;;;;;5066508;28;20013;-81
2023/09/23 08:34:49;;;;;;;1.75;0.90;;;17.50;56.80;;;;;;5056704;28;20472;-80
2023/09/23 08:37:16;;;;;;;1.85;1.13;;;17.50;56.70;;;;;;5054647;28;20079;-81
2023/09/23 08:39:43;;;;;;;4.22;0.90;;;17.40;56.80;;;;;;5065043;28;20483;-80
2023/09/23 08:42:11;;;;;;;2.63;1.33;;;17.40;57.40;;;;;;5059260;28;20032;-81
2023/09/23 08:44:40;;;;;;;2.28;1.27;;;17.40;57.90;;;;;;5060161;28;20150;-80
2023/09/23 08:47:08;;;;;;;2.55;1.15;;;17.30;57.70;;;;;;5064159;28;20033;-80
2023/09/23 08:49:37;;;;;;;2.05;1.20;;;17.30;57.70;;;;;;5075251;28;20029;-81
2023/09/23 08:52:05;;;;;;;3.38;1.20;;;17.30;57.50;;;;;;5075331;28;20025;-81
2023/09/23 08:54:33;;;;;;;2.63;0.95;;;17.30;57.90;;;;;;5075565;28;20024;-81
2023/09/23 08:57:00;;;;;;;2.33;1.10;;;17.20;58.60;;;;;;5070481;28;20029;-82
2023/09/23 08:59:28;;;;;;;1.50;1.02;;;17.20;58.20;;;;;;5058153;28;20398;-81
2023/09/23 09:01:55;;;;;;;4.35;1.30;;;17.20;58.00;;;;;;5062358;28;20391;-83
2023/09/23 09:04:23;;;;;;;5.15;1.70;;;17.20;58.30;;;;;;5068756;28;20471;-81
2023/09/23 09:06:58;;;;;;;3.22;1.20;;;17.10;58.60;;;;;;5064199;28;20116;-81
2023/09/23 09:09:26;;;;;;;5.17;1.20;;;17.10;59.00;;;;;;5067813;28;20013;-81
2023/09/23 09:11:54;;;;;;;1.83;0.90;;;17.10;59.20;;;;;;5064444;28;20303;-81
2023/09/23 09:14:22;;;;;;;3.58;0.95;;;17.00;59.00;;;;;;5074761;28;20025;-81
2023/09/23 09:16:50;;;;;;;4.90;1.30;;;17.00;59.10;;;;;;5063956;28;20086;-80
2023/09/23 09:19:19;;;;;;;1.70;1.00;;;17.00;59.20;;;;;;5074937;28;20135;-81
2023/09/23 09:21:47;;;;;;;1.88;1.00;;;17.00;59.50;;;;;;5074747;28;20021;-81
2023/09/23 09:24:14;;;;;;;3.97;1.38;;;17.00;59.20;;;;;;5074917;28;20103;-81
2023/09/23 09:26:41;;;;;;;4.05;1.50;;;16.90;59.40;;;;;;5067571;28;20040;-82
2023/09/23 09:29:09;;;;;;;4.15;1.77;;;17.00;59.40;;;;;;5060020;28;20021;-80
2023/09/23 09:31:38;;;;;;;3.75;2.08;;;16.90;59.60;;;;;;5054541;28;20114;-82
2023/09/23 09:34:11;;;;;;;4.70;2.10;;;16.90;59.50;;;;;;5054609;28;20021;-81
2023/09/23 09:36:39;;;;;;;4.38;1.73;;;16.90;59.50;;;;;;5054253;28;20377;-82
2023/09/23 09:39:08;;;;;;;5.03;2.10;;;16.80;59.80;;;;;;5054683;28;20033;-80
2023/09/23 09:41:42;;;;;;;4.53;1.85;;;16.80;60.00;;;;;;5062657;28;20028;-81
2023/09/23 09:44:11;;;;;;;4.68;1.75;;;16.80;60.00;;;;;;5059378;28;20036;-81
2023/09/23 09:46:41;;;;;;;4.57;1.75;;;16.70;60.20;;;;;;5068653;28;20071;-80
2023/09/23 09:49:10;;;;;;;2.42;1.60;;;16.70;60.30;;;;;;5067498;28;20082;-80
2023/09/23 09:51:41;;;;;;;3.78;1.90;;;16.70;60.50;;;;;;5068835;28;20028;-82
2023/09/23 09:54:11;;;;;;;4.63;1.75;;;16.70;60.60;;;;;;5074116;28;20030;-81
2023/09/23 09:56:44;;;;;;;3.35;1.83;;;16.70;60.60;;;;;;5073091;28;20467;-80
2023/09/23 09:59:22;;;;;;;5.78;2.30;;;16.70;60.40;;;;;;5052855;28;20085;-82
2023/09/23 10:01:55;;;;;;;3.83;2.03;;;16.60;60.60;;;;;;5068056;28;20033;-81
2023/09/23 10:04:26;;;;;;;5.80;2.35;;;16.60;60.50;;;;;;5064453;28;20099;-81
2023/09/23 10:06:57;;;;;;;6.68;2.63;;;16.50;60.70;;;;;;5066933;28;20119;-80
2023/09/23 10:09:32;;;;;;;3.38;1.95;;;16.60;61.00;;;;;;5068545;28;20040;-80
2023/09/23 10:12:02;;;;;;;3.70;2.23;;;16.50;61.20;;;;;;5053835;28;20071;-81
2023/09/23 10:14:29;;;;;;;7.32;3.22;;;16.40;61.50;;;;;;5061788;28;20020;-82
2023/09/23 10:17:04;;;;;;;7.07;2.70;;;16.30;61.60;;;;;;5060690;28;20174;-81
2023/09/23 10:19:42;;;;;;;5.18;2.60;;;16.30;61.90;;;;;;5056870;28;20067;-82
2023/09/23 10:22:18;;;;;;;4.15;2.40;;;16.20;62.40;;;;;;5059930;28;20021;-81
2023/09/23 10:24:46;;;;;;;7.38;2.47;;;16.20;62.40;;;;;;5068983;28;20067;-82
2023/09/23 10:27:19;;;;;;;8.88;3.03;;;16.20;62.80;;;;;;5073281;28;20453;-80
2023/09/23 10:29:47;;;;;;;5.65;2.92;;;16.10;62.90;;;;;;5072247;28;20024;-81
2023/09/23 10:32:18;;;;;;;3.53;2.25;;;16.10;63.00;;;;;;5065042;28;20040;-79
2023/09/23 10:34:51;;;;;;;7.25;2.45;;;16.00;63.20;;;;;;5064192;28;20087;-81
2023/09/23 10:37:35;;;;;;;6.53;2.85;;;16.00;63.40;;;;;;5053925;28;20059;-80
2023/09/23 10:40:17;;;;;;;5.15;2.60;;;16.00;63.50;;;;;;5053202;28;20411;-81
2023/09/23 10:42:49;;;;;;;5.30;2.60;;;15.90;63.80;;;;;;5056951;28;20024;-81
2023/09/23 10:45:22;;;;;;;5.30;2.40;;;15.90;63.80;;;;;;5060835;28;20028;-80
2023/09/23 10:47:50;;;;;;;4.93;2.20;;;15.90;64.00;;;;;;5069589;28;20067;-79
2023/09/23 10:50:17;;;;;;;6.47;2.70;;;15.80;64.00;;;;;;5064457;28;20525;-79
2023/09/23 10:52:45;;;;;;;4.57;2.53;;;15.80;64.20;;;;;;5060732;28;20037;-81
2023/09/23 10:55:13;;;;;;;4.82;2.38;;;15.70;64.20;;;;;;5072965;28;20392;-80
2023/09/23 10:57:41;;;;;;;4.70;2.53;;;15.70;64.50;;;;;;5071595;28;20031;-80
2023/09/23 11:00:16;;;;;;;6.05;2.70;;;15.70;64.50;;;;;;5071097;28;20103;-81
2023/09/23 11:02:47;;;;;;;6.50;3.03;;;15.70;64.70;;;;;;5071727;28;20056;-83
2023/09/23 11:05:16;;;;;;;5.07;3.00;;;15.70;64.80;;;;;;5068482;28;20040;-80
2023/09/23 11:07:44;;;;;;;6.20;2.92;;;15.60;64.90;;;;;;5059677;28;20476;-81
2023/09/23 11:10:12;;;;;;;5.10;2.97;;;15.60;65.00;;;;;;5057584;28;20033;-79
2023/09/23 11:12:46;;;;;;;7.32;2.97;;;15.60;64.90;;;;;;5059497;28;20104;-81
2023/09/23 11:15:13;;;;;;;7.03;2.63;;;15.50;65.10;;;;;;5059286;28;20357;-79
2023/09/23 11:17:44;;;;;;;4.90;2.85;;;15.50;65.40;;;;;;5061101;28;20384;-80
2023/09/23 11:20:12;;;;;;;7.63;2.90;;;15.50;65.60;;;;;;5063026;28;20066;-81
2023/09/23 11:22:43;;;;;;;9.10;3.63;;;15.40;65.70;;;;;;5078160;28;20025;-80
2023/09/23 11:25:11;;;;;;;4.93;3.20;;;15.50;65.80;;;;;;5064668;28;20063;-81
2023/09/23 11:27:40;;;;;;;5.97;3.47;;;15.40;65.70;;;;;;5068469;28;20032;-81
2023/09/23 11:30:08;;;;;;;8.05;3.45;;;15.40;65.80;;;;;;5072469;28;20028;-79
2023/09/23 11:32:36;;;;;;;5.05;3.45;;;15.30;65.90;;;;;;5072570;28;20028;-80
2023/09/23 11:35:04;;;;;;;8.13;3.80;;;15.30;65.90;;;;;;5066357;28;20020;-81
2023/09/23 11:37:31;;;;;;;7.97;3.58;;;15.30;66.00;;;;;;5059921;28;20041;-80
2023/09/23 11:39:58;;;;;;;7.82;4.00;;;15.30;66.00;;;;;;5068075;28;20047;-81
2023/09/23 11:42:27;;;;;;;8.05;4.47;;;15.20;66.10;;;;;;5071744;28;20016;-79
2023/09/23 11:44:55;;;;;;;7.40;3.80;;;15.20;66.40;;;;;;5075299;28;20029;-79
2023/09/23 11:47:22;;;;;;;8.13;4.43;;;15.20;66.30;;;;;;5062434;28;20028;-81
2023/09/23 11:49:51;;;;;;;6.93;4.55;;;15.20;66.30;;;;;;5061056;28;20029;-80
2023/09/23 11:52:19;;;;;;;10.20;3.67;;;15.20;66.40;;;;;;5074784;28;20493;-82
2023/09/23 11:54:47;;;;;;;7.60;4.03;;;15.20;66.30;;;;;;5075619;28;20387;-82
2023/09/23 11:57:15;;;;;;;4.85;3.30;;;15.20;66.60;;;;;;5073797;28;20059;-81
2023/09/23 11:59:43;;;;;;;6.65;3.35;;;15.20;66.30;;;;;;5070919;28;20529;-82
2023/09/23 12:02:11;;;;;;;6.35;3.13;;;15.20;66.20;;;;;;5055932;28;20067;-79
2023/09/23 12:04:40;;;;;;;5.25;2.58;;;15.20;66.40;;;;;;5059306;28;20055;-77
2023/09/23 12:07:07;;;;;;;5.18;3.00;;;15.20;66.70;;;;;;5083730;28;20047;-81
2023/09/23 12:09:35;;;;;;;5.70;3.08;;;15.20;66.60;;;;;;5070616;28;20032;-81
2023/09/23 12:12:02;;;;;;;4.90;2.90;;;15.10;66.60;;;;;;5075304;28;20048;-78
2023/09/23 12:14:30;;;;;;;6.95;2.90;;;15.00;66.70;;;;;;5078494;28;20035;-79
2023/09/23 12:16:57;;;;;;;5.22;2.60;;;15.00;66.70;;;;;;5072246;28;20021;-79
2023/09/23 12:19:24;;;;;;;6.95;3.08;;;15.00;67.00;;;;;;5086196;28;20029;-81
2023/09/23 12:21:52;;;;;;;4.97;2.85;;;15.00;66.70;;;;;;5065853;28;20033;-80
2023/09/23 12:24:19;;;;;;;4.28;2.35;;;15.00;66.60;;;;;;5075757;28;20020;-80
2023/09/23 12:26:46;;;;;;;5.45;2.20;;;15.00;66.70;;;;;;5082780;28;20081;-81
2023/09/23 12:29:14;;;;;;;4.47;2.20;;;14.90;66.90;;;;;;5084058;28;20025;-79
2023/09/23 12:31:41;;;;;;;3.47;1.90;;;14.90;67.00;;;;;;5071565;28;20100;-79
2023/09/23 12:34:08;;;;;;;3.08;2.20;;;14.90;66.80;;;;;;5066822;28;20082;-82
2023/09/23 12:36:36;;;;;;;3.97;2.60;;;14.90;67.30;;;;;;5070545;28;20051;-80
2023/09/23 12:39:03;;;;;;;5.88;2.47;;;14.90;66.80;;;;;;5052959;28;20683;-82
2023/09/23 12:41:31;;;;;;;3.70;2.22;;;14.90;67.30;;;;;;5067103;28;20115;-79
2023/09/23 12:43:58;;;;;;;5.95;2.42;;;15.00;67.00;;;;;;5066336;28;20059;-81
2023/09/23 12:46:26;;;;;;;5.38;2.30;;;14.90;67.00;;;;;;5068308;28;20040;-81
2023/09/23 12:48:53;;;;;;;4.03;2.10;;;14.90;67.30;;;;;;5056356;28;20399;-80
2023/09/23 12:51:21;;;;;;;3.92;2.22;;;14.80;67.40;;;;;;5064719;28;20142;-79
2023/09/23 12:53:48;;;;;;;4.22;2.50;;;14.90;67.60;;;;;;5069831;28;20497;-80
2023/09/23 12:56:17;;;;;;;4.47;2.20;;;14.80;67.60;;;;;;5074230;28;20028;-81